EFRO Airport Information

Runway Information
Runway 03 Length 9849 ft width 197 ft
Elevation 633 ft Threshold 0 ft Heading 37
Runway 21 Length 9849 ft Width 197 ft
Elevation 609 ft Threshold 0 ft Heading 217
Airport Frequencies
Type APP Name APP Frequency 125.8 MHZ
Type ATIS Name ATIS Frequency 117.7 MHZ
Type GND Name GND Frequency 118.525 MHZ
Type PMSV Name PMSV METRO Frequency 125.1 MHZ
Type TWR Name TWR Frequency 118.7 MHZ
Airport Navaids
Type NDB Name Papa-Alfa Frequency 377 KHZ
Type VOR-DME Name Rovani Frequency 117700 KHZ
Type NDB Name Toramo Frequency 416 KHZ
Airport Weather Information & NOTAM
ADDS - METARS form results

(0012 UTC 18 January 2018)
 
METAR text: EFRO 172350Z AUTO 07005KT 9999 -SN NCD M16/M18 Q1006
Conditions at: EFRO (ROVANIEMI (CIV/M, FI) observed 2350 UTC 17 January 2018
Temperature: -16.0°C (3°F)
Dewpoint: -18.0°C (-0°F) [RH = 85%]
Pressure (altimeter): 29.70 inches Hg (1006.0 mb)
Winds: from the ENE (70 degrees) at 6 MPH (5 knots; 2.6 m/s)
Visibility: 6 or more miles (10+ km)
Ceiling: at least 12,000 feet AGL
Clouds: sky clear below 12,000 feet AGL
Weather: -SN  (light snow)

METAR text: EFRO 172320Z AUTO 07005KT 9999 -SN FEW075 SCT105 M15/M16 Q1006
Conditions at: EFRO (ROVANIEMI (CIV/M, FI) observed 2320 UTC 17 January 2018
Temperature: -15.0°C (5°F)
Dewpoint: -16.0°C (3°F) [RH = 92%]
Pressure (altimeter): 29.70 inches Hg (1006.0 mb)
Winds: from the ENE (70 degrees) at 6 MPH (5 knots; 2.6 m/s)
Visibility: 6 or more miles (10+ km)
Ceiling: at least 12,000 feet AGL
Clouds: few clouds at 7500 feet AGL
scattered clouds at 10500 feet AGL
Weather: -SN  (light snow)